Terminal Aerodrome Forecast
Issued by NWS Cleveland, OH

Home | Current Version | Previous Version | Text Only | Print | Product List | Glossary Off
Versions: 1 2 3 4 5 6 7 8 9 10 11 12 13 14 15 16 17 18 19 20 21 22 23 24 25

000
FTUS41 KCLE 181700
TAFMFD
TAF
KMFD 181740Z 1818/1918 30010G18KT P6SM VCSH BKN028 OVC035
      TEMPO 1818/1821 30010KT 6SM -SHRA BKN035
     FM182300 32012KT P6SM SCT025 BKN035
     FM190600 30006KT P6SM BKN028
     FM191100 29005KT P6SM SCT025=

USA.gov is the U.S. government's official web portal to all federal, state and local government web resources and services.